sensor_id;sensor_type;location;lat;lon;timestamp;P1;durP1;ratioP1;P2;durP2;ratioP2
562;SDS011;266;49.514;8.294;2023-07-29T00:00:52;2.27;;;2.10;;
562;SDS011;266;49.514;8.294;2023-07-29T00:03:22;3.00;;;1.83;;
562;SDS011;266;49.514;8.294;2023-07-29T00:05:50;2.40;;;2.20;;
562;SDS011;266;49.514;8.294;2023-07-29T00:08:20;2.47;;;2.27;;
562;SDS011;266;49.514;8.294;2023-07-29T00:10:48;2.60;;;2.40;;
562;SDS011;266;49.514;8.294;2023-07-29T00:13:16;2.57;;;2.37;;
562;SDS011;266;49.514;8.294;2023-07-29T00:15:47;2.30;;;2.00;;
562;SDS011;266;49.514;8.294;2023-07-29T00:18:15;2.23;;;2.03;;
562;SDS011;266;49.514;8.294;2023-07-29T00:20:43;2.17;;;1.97;;
562;SDS011;266;49.514;8.294;2023-07-29T00:23:11;2.33;;;2.13;;
562;SDS011;266;49.514;8.294;2023-07-29T00:25:41;2.47;;;2.23;;
562;SDS011;266;49.514;8.294;2023-07-29T00:28:09;2.67;;;1.70;;
562;SDS011;266;49.514;8.294;2023-07-29T00:30:37;1.93;;;1.80;;
562;SDS011;266;49.514;8.294;2023-07-29T00:33:06;2.30;;;2.10;;
562;SDS011;266;49.514;8.294;2023-07-29T00:35:34;2.10;;;1.90;;
562;SDS011;266;49.514;8.294;2023-07-29T00:38:02;2.40;;;2.20;;
562;SDS011;266;49.514;8.294;2023-07-29T00:40:30;2.60;;;2.40;;
562;SDS011;266;49.514;8.294;2023-07-29T00:43:03;2.70;;;2.27;;
562;SDS011;266;49.514;8.294;2023-07-29T00:45:32;1.80;;;1.70;;
562;SDS011;266;49.514;8.294;2023-07-29T00:48:00;2.20;;;2.00;;
562;SDS011;266;49.514;8.294;2023-07-29T00:50:29;1.93;;;1.83;;
562;SDS011;266;49.514;8.294;2023-07-29T00:52:58;2.20;;;2.00;;
562;SDS011;266;49.514;8.294;2023-07-29T00:55:26;2.20;;;2.00;;
562;SDS011;266;49.514;8.294;2023-07-29T00:57:55;2.43;;;2.23;;
562;SDS011;266;49.514;8.294;2023-07-29T01:00:25;2.13;;;2.03;;
562;SDS011;266;49.514;8.294;2023-07-29T01:02:54;2.43;;;2.23;;
562;SDS011;266;49.514;8.294;2023-07-29T01:05:22;1.80;;;1.70;;
562;SDS011;266;49.514;8.294;2023-07-29T01:07:55;2.00;;;1.90;;
562;SDS011;266;49.514;8.294;2023-07-29T01:10:30;2.50;;;2.30;;
562;SDS011;266;49.514;8.294;2023-07-29T01:13:09;3.30;;;2.07;;
562;SDS011;266;49.514;8.294;2023-07-29T01:15:46;4.87;;;2.27;;
562;SDS011;266;49.514;8.294;2023-07-29T01:18:22;2.40;;;2.20;;
562;SDS011;266;49.514;8.294;2023-07-29T01:20:52;1.90;;;1.80;;
562;SDS011;266;49.514;8.294;2023-07-29T01:23:24;2.40;;;2.20;;
562;SDS011;266;49.514;8.294;2023-07-29T01:25:53;3.37;;;2.17;;
562;SDS011;266;49.514;8.294;2023-07-29T01:28:21;2.37;;;2.17;;
562;SDS011;266;49.514;8.294;2023-07-29T01:30:51;5.70;;;2.00;;
562;SDS011;266;49.514;8.294;2023-07-29T01:33:25;2.73;;;2.20;;
562;SDS011;266;49.514;8.294;2023-07-29T01:35:54;2.87;;;2.57;;
562;SDS011;266;49.514;8.294;2023-07-29T01:38:31;2.30;;;2.10;;
562;SDS011;266;49.514;8.294;2023-07-29T01:41:01;2.50;;;2.30;;
562;SDS011;266;49.514;8.294;2023-07-29T01:43:30;4.00;;;1.90;;
562;SDS011;266;49.514;8.294;2023-07-29T01:45:58;3.47;;;2.30;;
562;SDS011;266;49.514;8.294;2023-07-29T01:48:27;2.43;;;2.23;;
562;SDS011;266;49.514;8.294;2023-07-29T01:50:56;2.00;;;1.80;;
562;SDS011;266;49.514;8.294;2023-07-29T01:53:24;2.73;;;2.53;;
562;SDS011;266;49.514;8.294;2023-07-29T01:55:54;3.53;;;3.07;;
562;SDS011;266;49.514;8.294;2023-07-29T01:58:23;2.23;;;2.13;;
562;SDS011;266;49.514;8.294;2023-07-29T02:00:51;2.10;;;2.00;;
562;SDS011;266;49.514;8.294;2023-07-29T02:03:19;2.80;;;2.60;;
562;SDS011;266;49.514;8.294;2023-07-29T02:05:47;2.30;;;2.10;;
562;SDS011;266;49.514;8.294;2023-07-29T02:08:15;3.67;;;1.70;;
562;SDS011;266;49.514;8.294;2023-07-29T02:10:43;3.67;;;2.20;;
562;SDS011;266;49.514;8.294;2023-07-29T02:13:13;2.20;;;2.00;;
562;SDS011;266;49.514;8.294;2023-07-29T02:15:41;2.10;;;1.90;;
562;SDS011;266;49.514;8.294;2023-07-29T02:18:09;1.70;;;1.60;;
562;SDS011;266;49.514;8.294;2023-07-29T02:20:37;2.57;;;2.37;;
562;SDS011;266;49.514;8.294;2023-07-29T02:23:05;2.47;;;2.27;;
562;SDS011;266;49.514;8.294;2023-07-29T02:25:34;2.10;;;1.90;;
562;SDS011;266;49.514;8.294;2023-07-29T02:28:03;1.97;;;1.87;;
562;SDS011;266;49.514;8.294;2023-07-29T02:30:32;2.20;;;2.00;;
562;SDS011;266;49.514;8.294;2023-07-29T02:33:00;2.37;;;2.27;;
562;SDS011;266;49.514;8.294;2023-07-29T02:35:28;2.20;;;2.10;;
562;SDS011;266;49.514;8.294;2023-07-29T02:37:56;3.10;;;2.90;;
562;SDS011;266;49.514;8.294;2023-07-29T02:40:24;2.60;;;2.40;;
562;SDS011;266;49.514;8.294;2023-07-29T02:42:54;2.30;;;2.10;;
562;SDS011;266;49.514;8.294;2023-07-29T02:45:22;2.77;;;2.13;;
562;SDS011;266;49.514;8.294;2023-07-29T02:47:51;2.40;;;2.20;;
562;SDS011;266;49.514;8.294;2023-07-29T02:50:19;2.40;;;2.20;;
562;SDS011;266;49.514;8.294;2023-07-29T02:52:47;2.33;;;2.13;;
562;SDS011;266;49.514;8.294;2023-07-29T02:55:17;3.00;;;2.70;;
562;SDS011;266;49.514;8.294;2023-07-29T02:57:45;2.30;;;2.10;;
562;SDS011;266;49.514;8.294;2023-07-29T03:00:13;2.40;;;2.20;;
562;SDS011;266;49.514;8.294;2023-07-29T03:02:41;2.10;;;1.90;;
562;SDS011;266;49.514;8.294;2023-07-29T03:05:11;2.50;;;2.13;;
562;SDS011;266;49.514;8.294;2023-07-29T03:07:39;1.90;;;1.80;;
562;SDS011;266;49.514;8.294;2023-07-29T03:10:07;2.50;;;2.30;;
562;SDS011;266;49.514;8.294;2023-07-29T03:12:35;2.53;;;2.33;;
562;SDS011;266;49.514;8.294;2023-07-29T03:15:03;2.93;;;2.73;;
562;SDS011;266;49.514;8.294;2023-07-29T03:17:32;2.43;;;2.13;;
562;SDS011;266;49.514;8.294;2023-07-29T03:20:00;2.40;;;2.10;;
562;SDS011;266;49.514;8.294;2023-07-29T03:22:30;2.30;;;2.10;;
562;SDS011;266;49.514;8.294;2023-07-29T03:24:57;2.30;;;2.10;;
562;SDS011;266;49.514;8.294;2023-07-29T03:27:26;2.77;;;2.40;;
562;SDS011;266;49.514;8.294;2023-07-29T03:29:54;2.43;;;2.23;;
562;SDS011;266;49.514;8.294;2023-07-29T03:32:22;2.27;;;2.07;;
562;SDS011;266;49.514;8.294;2023-07-29T03:34:50;2.70;;;2.50;;
562;SDS011;266;49.514;8.294;2023-07-29T03:37:18;2.77;;;2.57;;
562;SDS011;266;49.514;8.294;2023-07-29T03:39:47;2.20;;;2.00;;
562;SDS011;266;49.514;8.294;2023-07-29T03:42:15;2.13;;;2.03;;
562;SDS011;266;49.514;8.294;2023-07-29T03:44:43;8.57;;;2.57;;
562;SDS011;266;49.514;8.294;2023-07-29T03:47:11;2.37;;;2.20;;
562;SDS011;266;49.514;8.294;2023-07-29T03:49:39;2.53;;;2.33;;
562;SDS011;266;49.514;8.294;2023-07-29T03:52:07;2.70;;;2.50;;
562;SDS011;266;49.514;8.294;2023-07-29T03:54:35;2.70;;;2.00;;
562;SDS011;266;49.514;8.294;2023-07-29T03:57:05;2.43;;;2.23;;
562;SDS011;266;49.514;8.294;2023-07-29T03:59:33;3.40;;;2.90;;
562;SDS011;266;49.514;8.294;2023-07-29T04:02:01;2.50;;;2.30;;
562;SDS011;266;49.514;8.294;2023-07-29T04:04:29;2.40;;;2.20;;
562;SDS011;266;49.514;8.294;2023-07-29T04:06:57;2.93;;;2.63;;
562;SDS011;266;49.514;8.294;2023-07-29T04:09:25;2.23;;;2.03;;
562;SDS011;266;49.514;8.294;2023-07-29T04:11:53;2.60;;;2.40;;
562;SDS011;266;49.514;8.294;2023-07-29T04:14:22;2.50;;;2.30;;
562;SDS011;266;49.514;8.294;2023-07-29T04:16:50;2.70;;;2.30;;
562;SDS011;266;49.514;8.294;2023-07-29T04:19:18;2.33;;;2.13;;
562;SDS011;266;49.514;8.294;2023-07-29T04:21:46;2.60;;;2.40;;
562;SDS011;266;49.514;8.294;2023-07-29T04:24:14;2.43;;;2.20;;
562;SDS011;266;49.514;8.294;2023-07-29T04:26:42;2.70;;;2.50;;
562;SDS011;266;49.514;8.294;2023-07-29T04:29:11;2.90;;;2.70;;
562;SDS011;266;49.514;8.294;2023-07-29T04:31:40;3.07;;;2.87;;
562;SDS011;266;49.514;8.294;2023-07-29T04:34:09;2.90;;;2.70;;
562;SDS011;266;49.514;8.294;2023-07-29T04:36:37;2.30;;;2.10;;
562;SDS011;266;49.514;8.294;2023-07-29T04:39:05;2.67;;;2.47;;
562;SDS011;266;49.514;8.294;2023-07-29T04:41:33;2.67;;;2.47;;
562;SDS011;266;49.514;8.294;2023-07-29T04:44:04;2.17;;;2.07;;
562;SDS011;266;49.514;8.294;2023-07-29T04:46:32;3.43;;;2.70;;
562;SDS011;266;49.514;8.294;2023-07-29T04:49:02;2.50;;;2.30;;
562;SDS011;266;49.514;8.294;2023-07-29T04:51:31;2.63;;;2.43;;
562;SDS011;266;49.514;8.294;2023-07-29T04:53:59;3.37;;;2.90;;
562;SDS011;266;49.514;8.294;2023-07-29T04:56:27;3.17;;;2.97;;
562;SDS011;266;49.514;8.294;2023-07-29T04:58:55;2.80;;;2.60;;
562;SDS011;266;49.514;8.294;2023-07-29T05:01:23;4.30;;;2.33;;
562;SDS011;266;49.514;8.294;2023-07-29T05:03:51;3.10;;;2.90;;
562;SDS011;266;49.514;8.294;2023-07-29T05:06:20;2.97;;;2.77;;
562;SDS011;266;49.514;8.294;2023-07-29T05:08:48;2.87;;;2.57;;
562;SDS011;266;49.514;8.294;2023-07-29T05:11:16;2.90;;;2.70;;
562;SDS011;266;49.514;8.294;2023-07-29T05:13:45;2.80;;;2.60;;
562;SDS011;266;49.514;8.294;2023-07-29T05:16:12;4.10;;;2.50;;
562;SDS011;266;49.514;8.294;2023-07-29T05:18:40;2.97;;;2.70;;
562;SDS011;266;49.514;8.294;2023-07-29T05:21:08;3.13;;;2.83;;
562;SDS011;266;49.514;8.294;2023-07-29T05:23:38;2.70;;;2.50;;
562;SDS011;266;49.514;8.294;2023-07-29T05:26:06;3.10;;;2.90;;
562;SDS011;266;49.514;8.294;2023-07-29T05:28:34;3.20;;;3.00;;
562;SDS011;266;49.514;8.294;2023-07-29T05:31:02;2.40;;;2.20;;
562;SDS011;266;49.514;8.294;2023-07-29T05:33:30;2.80;;;2.60;;
562;SDS011;266;49.514;8.294;2023-07-29T05:35:58;2.77;;;2.57;;
562;SDS011;266;49.514;8.294;2023-07-29T05:38:26;2.20;;;2.00;;
562;SDS011;266;49.514;8.294;2023-07-29T05:40:56;2.70;;;2.50;;
562;SDS011;266;49.514;8.294;2023-07-29T05:43:24;3.80;;;2.23;;
562;SDS011;266;49.514;8.294;2023-07-29T05:45:52;3.00;;;2.70;;
562;SDS011;266;49.514;8.294;2023-07-29T05:48:20;2.20;;;2.07;;
562;SDS011;266;49.514;8.294;2023-07-29T05:50:48;1.80;;;1.70;;
562;SDS011;266;49.514;8.294;2023-07-29T05:53:16;2.03;;;1.83;;
562;SDS011;266;49.514;8.294;2023-07-29T05:55:44;2.30;;;2.10;;
562;SDS011;266;49.514;8.294;2023-07-29T05:58:13;1.67;;;1.57;;
562;SDS011;266;49.514;8.294;2023-07-29T06:00:42;1.40;;;1.30;;
562;SDS011;266;49.514;8.294;2023-07-29T06:03:10;3.50;;;2.00;;
562;SDS011;266;49.514;8.294;2023-07-29T06:05:38;3.17;;;1.80;;
562;SDS011;266;49.514;8.294;2023-07-29T06:08:06;1.70;;;1.50;;
562;SDS011;266;49.514;8.294;2023-07-29T06:10:35;1.40;;;1.30;;
562;SDS011;266;49.514;8.294;2023-07-29T06:13:04;1.83;;;1.73;;
562;SDS011;266;49.514;8.294;2023-07-29T06:15:33;1.70;;;1.60;;
562;SDS011;266;49.514;8.294;2023-07-29T06:18:01;4.13;;;1.70;;
562;SDS011;266;49.514;8.294;2023-07-29T06:20:29;1.77;;;1.67;;
562;SDS011;266;49.514;8.294;2023-07-29T06:22:57;2.00;;;1.90;;
562;SDS011;266;49.514;8.294;2023-07-29T06:25:25;3.53;;;1.87;;
562;SDS011;266;49.514;8.294;2023-07-29T06:27:53;2.40;;;1.90;;
562;SDS011;266;49.514;8.294;2023-07-29T06:30:21;3.93;;;1.80;;
562;SDS011;266;49.514;8.294;2023-07-29T06:32:50;1.90;;;1.80;;
562;SDS011;266;49.514;8.294;2023-07-29T06:35:19;2.23;;;2.03;;
562;SDS011;266;49.514;8.294;2023-07-29T06:37:47;2.00;;;1.80;;
562;SDS011;266;49.514;8.294;2023-07-29T06:40:15;1.70;;;1.60;;
562;SDS011;266;49.514;8.294;2023-07-29T06:42:43;2.00;;;1.90;;
562;SDS011;266;49.514;8.294;2023-07-29T06:45:11;1.57;;;1.47;;
562;SDS011;266;49.514;8.294;2023-07-29T06:47:39;2.10;;;1.70;;
562;SDS011;266;49.514;8.294;2023-07-29T06:50:08;1.43;;;1.33;;
562;SDS011;266;49.514;8.294;2023-07-29T06:52:36;1.70;;;1.60;;
562;SDS011;266;49.514;8.294;2023-07-29T06:55:06;2.00;;;1.90;;
562;SDS011;266;49.514;8.294;2023-07-29T06:57:35;1.50;;;1.40;;
562;SDS011;266;49.514;8.294;2023-07-29T07:00:03;2.17;;;1.70;;
562;SDS011;266;49.514;8.294;2023-07-29T07:02:32;1.77;;;1.67;;
562;SDS011;266;49.514;8.294;2023-07-29T07:05:00;1.50;;;1.40;;
562;SDS011;266;49.514;8.294;2023-07-29T07:07:29;1.90;;;1.80;;
562;SDS011;266;49.514;8.294;2023-07-29T07:09:57;2.10;;;1.90;;
562;SDS011;266;49.514;8.294;2023-07-29T07:12:27;1.80;;;1.47;;
562;SDS011;266;49.514;8.294;2023-07-29T07:14:55;1.70;;;1.50;;
562;SDS011;266;49.514;8.294;2023-07-29T07:17:22;1.33;;;1.23;;
562;SDS011;266;49.514;8.294;2023-07-29T07:19:50;2.00;;;1.50;;
562;SDS011;266;49.514;8.294;2023-07-29T07:22:18;2.07;;;1.93;;
562;SDS011;266;49.514;8.294;2023-07-29T07:24:48;1.77;;;1.60;;
562;SDS011;266;49.514;8.294;2023-07-29T07:27:16;1.73;;;1.63;;
562;SDS011;266;49.514;8.294;2023-07-29T07:29:44;1.40;;;1.30;;
562;SDS011;266;49.514;8.294;2023-07-29T07:32:12;1.50;;;1.30;;
562;SDS011;266;49.514;8.294;2023-07-29T07:34:40;1.43;;;1.33;;
562;SDS011;266;49.514;8.294;2023-07-29T07:37:07;1.70;;;1.60;;
562;SDS011;266;49.514;8.294;2023-07-29T07:39:35;1.37;;;1.27;;
562;SDS011;266;49.514;8.294;2023-07-29T07:42:05;3.67;;;1.40;;
562;SDS011;266;49.514;8.294;2023-07-29T07:44:34;1.50;;;1.30;;
562;SDS011;266;49.514;8.294;2023-07-29T07:47:02;3.40;;;1.17;;
562;SDS011;266;49.514;8.294;2023-07-29T07:49:31;1.40;;;1.20;;
562;SDS011;266;49.514;8.294;2023-07-29T07:51:59;5.07;;;1.43;;
562;SDS011;266;49.514;8.294;2023-07-29T07:54:27;1.30;;;1.20;;
562;SDS011;266;49.514;8.294;2023-07-29T07:56:55;1.43;;;1.33;;
562;SDS011;266;49.514;8.294;2023-07-29T07:59:24;1.30;;;1.20;;
562;SDS011;266;49.514;8.294;2023-07-29T08:01:52;4.20;;;1.80;;
562;SDS011;266;49.514;8.294;2023-07-29T08:04:20;1.57;;;1.33;;
562;SDS011;266;49.514;8.294;2023-07-29T08:06:48;1.40;;;1.00;;
562;SDS011;266;49.514;8.294;2023-07-29T08:09:16;2.43;;;1.60;;
562;SDS011;266;49.514;8.294;2023-07-29T08:11:44;1.60;;;1.50;;
562;SDS011;266;49.514;8.294;2023-07-29T08:14:12;1.30;;;1.13;;
562;SDS011;266;49.514;8.294;2023-07-29T08:16:41;1.30;;;1.10;;
562;SDS011;266;49.514;8.294;2023-07-29T08:19:09;1.13;;;0.90;;
562;SDS011;266;49.514;8.294;2023-07-29T08:21:37;1.20;;;1.10;;
562;SDS011;266;49.514;8.294;2023-07-29T08:24:05;1.30;;;1.20;;
562;SDS011;266;49.514;8.294;2023-07-29T08:26:34;1.17;;;1.00;;
562;SDS011;266;49.514;8.294;2023-07-29T08:29:02;1.20;;;1.07;;
562;SDS011;266;49.514;8.294;2023-07-29T08:31:30;2.10;;;1.00;;
562;SDS011;266;49.514;8.294;2023-07-29T08:34:01;3.70;;;1.23;;
562;SDS011;266;49.514;8.294;2023-07-29T08:36:29;2.40;;;1.60;;
562;SDS011;266;49.514;8.294;2023-07-29T08:38:57;2.80;;;1.20;;
562;SDS011;266;49.514;8.294;2023-07-29T08:41:25;2.93;;;1.23;;
562;SDS011;266;49.514;8.294;2023-07-29T08:43:59;1.37;;;1.27;;
562;SDS011;266;49.514;8.294;2023-07-29T08:46:39;1.83;;;1.40;;
562;SDS011;266;49.514;8.294;2023-07-29T08:49:09;1.40;;;1.30;;
562;SDS011;266;49.514;8.294;2023-07-29T08:51:41;2.50;;;1.50;;
562;SDS011;266;49.514;8.294;2023-07-29T08:54:10;1.10;;;1.00;;
562;SDS011;266;49.514;8.294;2023-07-29T08:56:38;1.67;;;1.20;;
562;SDS011;266;49.514;8.294;2023-07-29T08:59:08;2.10;;;1.40;;
562;SDS011;266;49.514;8.294;2023-07-29T09:01:37;2.73;;;1.37;;
562;SDS011;266;49.514;8.294;2023-07-29T09:04:05;1.40;;;1.30;;
562;SDS011;266;49.514;8.294;2023-07-29T09:06:35;1.30;;;1.20;;
562;SDS011;266;49.514;8.294;2023-07-29T09:09:05;1.47;;;1.37;;
562;SDS011;266;49.514;8.294;2023-07-29T09:11:35;1.13;;;1.03;;
562;SDS011;266;49.514;8.294;2023-07-29T09:14:03;1.30;;;1.20;;
562;SDS011;266;49.514;8.294;2023-07-29T09:16:31;1.07;;;1.00;;
562;SDS011;266;49.514;8.294;2023-07-29T09:19:01;1.33;;;1.10;;
562;SDS011;266;49.514;8.294;2023-07-29T09:21:30;1.57;;;1.20;;
562;SDS011;266;49.514;8.294;2023-07-29T09:24:01;1.43;;;1.23;;
562;SDS011;266;49.514;8.294;2023-07-29T09:26:30;1.40;;;1.30;;
562;SDS011;266;49.514;8.294;2023-07-29T09:28:59;1.40;;;1.30;;
562;SDS011;266;49.514;8.294;2023-07-29T09:31:28;1.53;;;1.43;;
562;SDS011;266;49.514;8.294;2023-07-29T09:33:57;2.20;;;2.00;;
562;SDS011;266;49.514;8.294;2023-07-29T09:36:25;1.37;;;1.20;;
562;SDS011;266;49.514;8.294;2023-07-29T09:38:54;2.30;;;1.37;;
562;SDS011;266;49.514;8.294;2023-07-29T09:41:24;2.03;;;1.27;;
562;SDS011;266;49.514;8.294;2023-07-29T09:43:57;1.50;;;1.40;;
562;SDS011;266;49.514;8.294;2023-07-29T09:46:32;1.60;;;1.50;;
562;SDS011;266;49.514;8.294;2023-07-29T09:49:03;1.43;;;1.30;;
562;SDS011;266;49.514;8.294;2023-07-29T09:51:32;1.47;;;1.37;;
562;SDS011;266;49.514;8.294;2023-07-29T09:54:05;1.40;;;1.30;;
562;SDS011;266;49.514;8.294;2023-07-29T09:56:34;1.70;;;1.60;;
562;SDS011;266;49.514;8.294;2023-07-29T09:59:09;9.90;;;1.57;;
562;SDS011;266;49.514;8.294;2023-07-29T10:01:38;1.70;;;1.53;;
562;SDS011;266;49.514;8.294;2023-07-29T10:04:08;2.60;;;1.90;;
562;SDS011;266;49.514;8.294;2023-07-29T10:06:39;1.50;;;1.40;;
562;SDS011;266;49.514;8.294;2023-07-29T10:09:08;1.43;;;1.33;;
562;SDS011;266;49.514;8.294;2023-07-29T10:11:40;2.23;;;1.50;;
562;SDS011;266;49.514;8.294;2023-07-29T10:14:08;1.80;;;1.70;;
562;SDS011;266;49.514;8.294;2023-07-29T10:16:36;2.17;;;1.97;;
562;SDS011;266;49.514;8.294;2023-07-29T10:19:05;2.60;;;1.40;;
562;SDS011;266;49.514;8.294;2023-07-29T10:21:35;1.70;;;1.57;;
562;SDS011;266;49.514;8.294;2023-07-29T10:24:06;6.30;;;1.73;;
562;SDS011;266;49.514;8.294;2023-07-29T10:26:43;1.67;;;1.57;;
562;SDS011;266;49.514;8.294;2023-07-29T10:29:13;2.70;;;2.03;;
562;SDS011;266;49.514;8.294;2023-07-29T10:31:43;1.93;;;1.80;;
562;SDS011;266;49.514;8.294;2023-07-29T10:34:12;1.57;;;1.47;;
562;SDS011;266;49.514;8.294;2023-07-29T10:36:41;1.63;;;1.53;;
562;SDS011;266;49.514;8.294;2023-07-29T10:39:10;12.03;;;2.33;;
562;SDS011;266;49.514;8.294;2023-07-29T10:41:55;2.20;;;2.00;;
562;SDS011;266;49.514;8.294;2023-07-29T10:47:16;2.57;;;1.87;;
562;SDS011;266;49.514;8.294;2023-07-29T10:49:46;2.30;;;2.10;;
562;SDS011;266;49.514;8.294;2023-07-29T10:52:16;1.47;;;1.37;;
562;SDS011;266;49.514;8.294;2023-07-29T10:54:56;1.83;;;1.60;;
562;SDS011;266;49.514;8.294;2023-07-29T10:57:31;3.10;;;1.50;;
562;SDS011;266;49.514;8.294;2023-07-29T11:00:00;2.50;;;1.80;;
562;SDS011;266;49.514;8.294;2023-07-29T11:02:31;1.50;;;1.40;;
562;SDS011;266;49.514;8.294;2023-07-29T11:05:00;2.00;;;1.80;;
562;SDS011;266;49.514;8.294;2023-07-29T11:07:42;1.60;;;1.50;;
562;SDS011;266;49.514;8.294;2023-07-29T11:10:11;1.80;;;1.50;;
562;SDS011;266;49.514;8.294;2023-07-29T11:12:42;2.07;;;1.67;;
562;SDS011;266;49.514;8.294;2023-07-29T11:15:17;2.00;;;1.80;;
562;SDS011;266;49.514;8.294;2023-07-29T11:17:47;2.17;;;1.40;;
562;SDS011;266;49.514;8.294;2023-07-29T11:20:17;1.60;;;1.50;;
562;SDS011;266;49.514;8.294;2023-07-29T11:22:46;2.37;;;2.17;;
562;SDS011;266;49.514;8.294;2023-07-29T11:25:15;1.87;;;1.60;;
562;SDS011;266;49.514;8.294;2023-07-29T11:27:45;3.73;;;1.40;;
562;SDS011;266;49.514;8.294;2023-07-29T11:30:14;1.77;;;1.47;;
562;SDS011;266;49.514;8.294;2023-07-29T11:32:44;1.70;;;1.60;;
562;SDS011;266;49.514;8.294;2023-07-29T11:35:14;1.57;;;1.47;;
562;SDS011;266;49.514;8.294;2023-07-29T11:37:44;1.30;;;1.20;;
562;SDS011;266;49.514;8.294;2023-07-29T11:40:13;1.87;;;1.40;;
562;SDS011;266;49.514;8.294;2023-07-29T11:42:42;1.60;;;1.50;;
562;SDS011;266;49.514;8.294;2023-07-29T11:45:12;1.50;;;1.40;;
562;SDS011;266;49.514;8.294;2023-07-29T11:47:43;1.43;;;1.30;;
562;SDS011;266;49.514;8.294;2023-07-29T11:50:13;1.60;;;1.50;;
562;SDS011;266;49.514;8.294;2023-07-29T11:52:42;1.50;;;1.40;;
562;SDS011;266;49.514;8.294;2023-07-29T11:55:11;2.27;;;1.20;;
562;SDS011;266;49.514;8.294;2023-07-29T11:57:41;1.37;;;1.20;;
562;SDS011;266;49.514;8.294;2023-07-29T12:00:11;1.37;;;1.27;;
562;SDS011;266;49.514;8.294;2023-07-29T12:02:41;1.50;;;1.40;;
562;SDS011;266;49.514;8.294;2023-07-29T12:05:12;1.70;;;1.60;;
562;SDS011;266;49.514;8.294;2023-07-29T12:07:42;1.50;;;1.40;;
562;SDS011;266;49.514;8.294;2023-07-29T12:10:11;1.90;;;1.57;;
562;SDS011;266;49.514;8.294;2023-07-29T12:12:43;1.60;;;1.50;;
562;SDS011;266;49.514;8.294;2023-07-29T12:15:14;1.47;;;1.37;;
562;SDS011;266;49.514;8.294;2023-07-29T12:17:52;1.87;;;1.50;;
562;SDS011;266;49.514;8.294;2023-07-29T12:20:25;1.30;;;1.20;;
562;SDS011;266;49.514;8.294;2023-07-29T12:22:56;1.30;;;1.20;;
562;SDS011;266;49.514;8.294;2023-07-29T12:25:25;1.60;;;1.43;;
562;SDS011;266;49.514;8.294;2023-07-29T12:27:53;1.97;;;1.87;;
562;SDS011;266;49.514;8.294;2023-07-29T12:30:23;1.60;;;1.47;;
562;SDS011;266;49.514;8.294;2023-07-29T12:32:52;1.97;;;1.80;;
562;SDS011;266;49.514;8.294;2023-07-29T12:35:20;1.43;;;1.33;;
562;SDS011;266;49.514;8.294;2023-07-29T12:37:57;1.80;;;1.30;;
562;SDS011;266;49.514;8.294;2023-07-29T12:40:26;1.67;;;1.57;;
562;SDS011;266;49.514;8.294;2023-07-29T12:42:54;3.03;;;1.40;;
562;SDS011;266;49.514;8.294;2023-07-29T12:45:25;2.27;;;1.47;;
562;SDS011;266;49.514;8.294;2023-07-29T12:47:55;1.40;;;1.30;;
562;SDS011;266;49.514;8.294;2023-07-29T12:50:23;1.37;;;1.20;;
562;SDS011;266;49.514;8.294;2023-07-29T12:52:51;2.10;;;1.87;;
562;SDS011;266;49.514;8.294;2023-07-29T12:55:19;1.43;;;1.33;;
562;SDS011;266;49.514;8.294;2023-07-29T12:57:49;1.80;;;1.70;;
562;SDS011;266;49.514;8.294;2023-07-29T13:00:18;2.50;;;1.80;;
562;SDS011;266;49.514;8.294;2023-07-29T13:02:47;1.40;;;1.30;;
562;SDS011;266;49.514;8.294;2023-07-29T13:05:16;1.77;;;1.57;;
562;SDS011;266;49.514;8.294;2023-07-29T13:07:44;1.70;;;1.60;;
562;SDS011;266;49.514;8.294;2023-07-29T13:10:12;1.60;;;1.50;;
562;SDS011;266;49.514;8.294;2023-07-29T13:12:40;1.43;;;1.33;;
562;SDS011;266;49.514;8.294;2023-07-29T13:15:08;1.33;;;1.23;;
562;SDS011;266;49.514;8.294;2023-07-29T13:17:36;1.87;;;1.60;;
562;SDS011;266;49.514;8.294;2023-07-29T13:20:08;3.13;;;1.80;;
562;SDS011;266;49.514;8.294;2023-07-29T13:22:36;1.90;;;1.50;;
562;SDS011;266;49.514;8.294;2023-07-29T13:25:04;1.93;;;1.40;;
562;SDS011;266;49.514;8.294;2023-07-29T13:27:32;1.73;;;1.60;;
562;SDS011;266;49.514;8.294;2023-07-29T13:30:00;1.70;;;1.33;;
562;SDS011;266;49.514;8.294;2023-07-29T13:32:28;1.80;;;1.23;;
562;SDS011;266;49.514;8.294;2023-07-29T13:34:56;1.40;;;1.30;;
562;SDS011;266;49.514;8.294;2023-07-29T13:37:25;1.60;;;1.50;;
562;SDS011;266;49.514;8.294;2023-07-29T13:39:53;1.53;;;1.43;;
562;SDS011;266;49.514;8.294;2023-07-29T13:42:21;1.47;;;1.37;;
562;SDS011;266;49.514;8.294;2023-07-29T13:44:49;1.50;;;1.40;;
562;SDS011;266;49.514;8.294;2023-07-29T13:47:18;3.80;;;1.40;;
562;SDS011;266;49.514;8.294;2023-07-29T13:49:46;1.47;;;1.37;;
562;SDS011;266;49.514;8.294;2023-07-29T13:52:14;6.20;;;1.37;;
562;SDS011;266;49.514;8.294;2023-07-29T13:54:43;1.40;;;1.30;;
562;SDS011;266;49.514;8.294;2023-07-29T13:57:12;1.47;;;1.37;;
562;SDS011;266;49.514;8.294;2023-07-29T13:59:40;3.80;;;1.27;;
562;SDS011;266;49.514;8.294;2023-07-29T14:02:07;2.00;;;1.50;;
562;SDS011;266;49.514;8.294;2023-07-29T14:04:35;1.40;;;1.30;;
562;SDS011;266;49.514;8.294;2023-07-29T14:07:04;1.30;;;1.20;;
562;SDS011;266;49.514;8.294;2023-07-29T14:09:33;1.30;;;1.20;;
562;SDS011;266;49.514;8.294;2023-07-29T14:12:02;1.30;;;1.20;;
562;SDS011;266;49.514;8.294;2023-07-29T14:14:31;1.50;;;1.30;;
562;SDS011;266;49.514;8.294;2023-07-29T14:16:59;2.07;;;1.50;;
562;SDS011;266;49.514;8.294;2023-07-29T14:19:26;1.50;;;1.40;;
562;SDS011;266;49.514;8.294;2023-07-29T14:21:54;1.43;;;1.30;;
562;SDS011;266;49.514;8.294;2023-07-29T14:24:22;2.00;;;1.80;;
562;SDS011;266;49.514;8.294;2023-07-29T14:26:50;2.80;;;1.70;;
562;SDS011;266;49.514;8.294;2023-07-29T14:29:20;1.57;;;1.47;;
562;SDS011;266;49.514;8.294;2023-07-29T14:31:48;1.93;;;1.73;;
562;SDS011;266;49.514;8.294;2023-07-29T14:34:16;1.67;;;1.40;;
562;SDS011;266;49.514;8.294;2023-07-29T14:36:46;1.50;;;1.40;;
562;SDS011;266;49.514;8.294;2023-07-29T14:39:15;2.33;;;1.67;;
562;SDS011;266;49.514;8.294;2023-07-29T14:41:43;2.37;;;1.70;;
562;SDS011;266;49.514;8.294;2023-07-29T14:44:11;1.73;;;1.40;;
562;SDS011;266;49.514;8.294;2023-07-29T14:46:40;1.80;;;1.70;;
562;SDS011;266;49.514;8.294;2023-07-29T14:49:09;2.10;;;1.90;;
562;SDS011;266;49.514;8.294;2023-07-29T14:51:38;2.10;;;1.53;;
562;SDS011;266;49.514;8.294;2023-07-29T14:54:06;1.60;;;1.50;;
562;SDS011;266;49.514;8.294;2023-07-29T14:56:34;2.07;;;1.37;;
562;SDS011;266;49.514;8.294;2023-07-29T14:59:03;1.30;;;1.20;;
562;SDS011;266;49.514;8.294;2023-07-29T15:01:31;1.60;;;1.47;;
562;SDS011;266;49.514;8.294;2023-07-29T15:04:00;1.50;;;1.40;;
562;SDS011;266;49.514;8.294;2023-07-29T15:06:29;1.50;;;1.40;;
562;SDS011;266;49.514;8.294;2023-07-29T15:08:57;1.80;;;1.70;;
562;SDS011;266;49.514;8.294;2023-07-29T15:11:25;1.60;;;1.50;;
562;SDS011;266;49.514;8.294;2023-07-29T15:13:53;1.70;;;1.60;;
562;SDS011;266;49.514;8.294;2023-07-29T15:16:22;2.23;;;1.40;;
562;SDS011;266;49.514;8.294;2023-07-29T15:18:51;1.70;;;1.60;;
562;SDS011;266;49.514;8.294;2023-07-29T15:21:21;1.47;;;1.37;;
562;SDS011;266;49.514;8.294;2023-07-29T15:23:49;1.70;;;1.60;;
562;SDS011;266;49.514;8.294;2023-07-29T15:26:17;1.53;;;1.43;;
562;SDS011;266;49.514;8.294;2023-07-29T15:28:45;2.40;;;1.67;;
562;SDS011;266;49.514;8.294;2023-07-29T15:31:13;2.30;;;1.70;;
562;SDS011;266;49.514;8.294;2023-07-29T15:33:41;4.70;;;1.80;;
562;SDS011;266;49.514;8.294;2023-07-29T15:36:09;1.23;;;1.13;;
562;SDS011;266;49.514;8.294;2023-07-29T15:38:39;1.53;;;1.40;;
562;SDS011;266;49.514;8.294;2023-07-29T15:41:07;1.30;;;1.20;;
562;SDS011;266;49.514;8.294;2023-07-29T15:43:35;1.50;;;1.40;;
562;SDS011;266;49.514;8.294;2023-07-29T15:46:03;1.47;;;1.37;;
562;SDS011;266;49.514;8.294;2023-07-29T15:48:31;1.73;;;1.63;;
562;SDS011;266;49.514;8.294;2023-07-29T15:50:59;1.80;;;1.60;;
562;SDS011;266;49.514;8.294;2023-07-29T15:53:27;1.60;;;1.50;;
562;SDS011;266;49.514;8.294;2023-07-29T15:55:57;1.50;;;1.40;;
562;SDS011;266;49.514;8.294;2023-07-29T15:58:25;1.83;;;1.70;;